createdAt,value
2019-04-27T00:01:35.008Z,69.46
2019-04-27T00:04:27.001Z,69.63
2019-04-27T00:07:00.946Z,69.75
2019-04-27T00:09:50.080Z,69.55
2019-04-27T00:12:16.431Z,69.55
2019-04-27T00:14:48.427Z,69.54
2019-04-27T00:17:44.947Z,69.62
2019-04-27T00:20:21.418Z,69.79
2019-04-27T00:22:54.524Z,69.94
2019-04-27T00:25:26.917Z,69.70
2019-04-27T00:27:56.031Z,69.77
2019-04-27T00:30:25.959Z,69.90
2019-04-27T00:32:55.842Z,70.04
2019-04-27T00:35:35.167Z,69.97
2019-04-27T00:38:18.593Z,70.10
2019-04-27T00:40:53.757Z,70.15
2019-04-27T00:43:25.227Z,70.30
2019-04-27T00:45:55.366Z,70.39
2019-04-27T00:48:25.216Z,70.56
2019-04-27T00:50:55.095Z,70.66
2019-04-27T00:53:25.417Z,70.47
2019-04-27T00:56:20.571Z,70.74
2019-04-27T00:59:21.603Z,71.31
2019-04-27T01:02:04.138Z,71.31
2019-04-27T01:04:34.180Z,71.48
2019-04-27T01:07:04.310Z,71.71
2019-04-27T01:09:34.417Z,71.71
2019-04-27T01:12:04.930Z,71.70
2019-04-27T01:14:34.773Z,71.71
2019-04-27T01:17:04.860Z,71.93
2019-04-27T01:19:34.806Z,71.99
2019-04-27T01:22:05.013Z,72.22
2019-04-27T01:24:34.941Z,72.13
2019-04-27T01:27:15.283Z,72.04
2019-04-27T01:29:45.404Z,72.09
2019-04-27T01:32:16.447Z,72.12
2019-04-27T01:34:46.413Z,72.09
2019-04-27T01:37:16.669Z,72.24
2019-04-27T01:39:46.463Z,72.14
2019-04-27T01:42:19.367Z,71.73
2019-04-27T01:44:51.074Z,72.07
2019-04-27T01:47:22.302Z,72.08
2019-04-27T01:49:52.245Z,72.18
2019-04-27T01:52:22.230Z,72.17
2019-04-27T01:54:52.128Z,72.23
2019-04-27T01:57:21.997Z,72.15
2019-04-27T01:59:51.876Z,72.17
2019-04-27T02:02:46.439Z,72.10
2019-04-27T02:05:35.730Z,72.16
2019-04-27T02:08:06.160Z,72.19
2019-04-27T02:10:37.048Z,72.36
2019-04-27T02:13:08.798Z,72.29
2019-04-27T02:15:39.555Z,72.48
2019-04-27T02:18:09.635Z,72.69
2019-04-27T02:20:39.584Z,72.42
2019-04-27T02:23:09.527Z,72.55
2019-04-27T02:25:41.524Z,72.70
2019-04-27T02:28:39.781Z,72.66
2019-04-27T02:31:46.853Z,72.87
2019-04-27T02:34:20.134Z,72.87
2019-04-27T02:36:50.517Z,72.91
2019-04-27T02:39:21.685Z,72.78
2019-04-27T02:41:52.175Z,72.94
2019-04-27T02:44:37.015Z,73.09
2019-04-27T02:47:07.253Z,72.80
2019-04-27T02:49:37.461Z,72.79
2019-04-27T02:52:26.756Z,72.61
2019-04-27T02:54:59.118Z,72.65
2019-04-27T02:57:30.215Z,72.83
2019-04-27T03:00:00.423Z,72.77
2019-04-27T03:02:40.209Z,73.01
2019-04-27T03:05:13.039Z,73.00
2019-04-27T03:07:42.846Z,72.49
2019-04-27T03:10:12.934Z,72.23
2019-04-27T03:12:47.208Z,71.92
2019-04-27T03:15:25.402Z,71.57
2019-04-27T03:18:09.891Z,71.11
2019-04-27T03:20:53.493Z,70.57
2019-04-27T03:23:23.433Z,70.51
2019-04-27T03:26:04.375Z,70.58
2019-04-27T03:28:34.430Z,70.91
2019-04-27T03:31:04.401Z,71.12
2019-04-27T03:33:35.144Z,71.30
2019-04-27T03:36:05.438Z,71.61
2019-04-27T03:38:35.619Z,71.79
2019-04-27T03:41:05.564Z,71.94
2019-04-27T03:43:35.610Z,71.93
2019-04-27T03:46:05.555Z,71.78
2019-04-27T03:48:35.797Z,71.35
2019-04-27T03:51:21.130Z,71.27
2019-04-27T03:54:10.743Z,71.53
2019-04-27T03:56:44.338Z,71.56
2019-04-27T03:59:52.100Z,71.58
2019-04-27T04:02:22.386Z,71.87
2019-04-27T04:04:52.325Z,71.93
2019-04-27T04:07:22.260Z,71.83
2019-04-27T04:09:52.219Z,72.01
2019-04-27T04:12:31.206Z,72.13
2019-04-27T04:15:01.480Z,72.32
2019-04-27T04:17:31.482Z,72.36
2019-04-27T04:20:02.534Z,72.36
2019-04-27T04:22:32.752Z,72.41
2019-04-27T04:25:02.676Z,72.62
2019-04-27T04:27:32.627Z,72.53
2019-04-27T04:30:02.792Z,72.48
2019-04-27T04:32:33.738Z,72.68
2019-04-27T04:35:21.663Z,72.60
2019-04-27T04:37:53.254Z,72.34
2019-04-27T04:40:30.911Z,72.47
2019-04-27T04:43:06.888Z,72.24
2019-04-27T04:45:59.479Z,72.55
2019-04-27T04:48:30.187Z,72.69
2019-04-27T04:51:00.301Z,72.03
2019-04-27T04:53:31.206Z,72.34
2019-04-27T04:56:01.148Z,72.36
2019-04-27T04:58:31.485Z,72.13
2019-04-27T05:01:01.999Z,72.12
2019-04-27T05:03:32.034Z,71.80
2019-04-27T05:06:02.013Z,71.37
2019-04-27T05:08:31.948Z,71.54
2019-04-27T05:11:01.822Z,71.24
2019-04-27T05:13:31.730Z,71.27
2019-04-27T05:16:01.597Z,71.39
2019-04-27T05:18:31.522Z,71.54
2019-04-27T05:21:08.681Z,71.66
2019-04-27T05:23:38.990Z,71.71
2019-04-27T05:26:09.250Z,71.70
2019-04-27T05:28:40.851Z,71.22
2019-04-27T05:31:10.920Z,70.78
2019-04-27T05:33:40.899Z,70.90
2019-04-27T05:36:11.027Z,71.21
2019-04-27T05:38:45.869Z,70.96
2019-04-27T05:41:14.475Z,70.74
2019-04-27T05:44:07.559Z,70.37
2019-04-27T05:46:52.787Z,70.57
2019-04-27T05:49:31.381Z,70.26
2019-04-27T05:52:01.345Z,70.87
2019-04-27T05:54:31.229Z,71.56
2019-04-27T05:57:01.199Z,72.45
2019-04-27T05:59:31.461Z,73.17
2019-04-27T06:02:01.882Z,73.45
2019-04-27T06:04:32.353Z,73.82
2019-04-27T06:07:02.464Z,74.99
2019-04-27T06:09:32.302Z,74.74
2019-04-27T06:12:02.401Z,74.78
2019-04-27T06:14:33.189Z,75.56
2019-04-27T06:17:03.390Z,76.18
2019-04-27T06:19:33.637Z,75.72
2019-04-27T06:22:03.578Z,76.27
2019-04-27T06:24:33.856Z,76.01
2019-04-27T06:27:04.100Z,76.45
2019-04-27T06:29:34.027Z,76.99
2019-04-27T06:32:04.292Z,76.95
2019-04-27T06:34:34.232Z,77.15
2019-04-27T06:37:04.374Z,77.54
2019-04-27T06:39:34.241Z,77.83
2019-04-27T06:42:16.070Z,77.63
2019-04-27T06:44:35.927Z,77.69
2019-04-27T06:47:05.930Z,77.74
2019-04-27T06:49:35.808Z,78.45
2019-04-27T06:52:08.574Z,78.84
2019-04-27T06:54:38.973Z,79.71
2019-04-27T06:57:09.259Z,80.02
2019-04-27T06:59:40.133Z,80.87
2019-04-27T07:02:10.081Z,81.49
2019-04-27T07:04:39.998Z,81.89
2019-04-27T07:07:10.836Z,81.64
2019-04-27T07:09:40.700Z,82.05
2019-04-27T07:12:10.647Z,81.97
2019-04-27T07:14:52.202Z,82.50
2019-04-27T07:17:12.441Z,82.56
2019-04-27T07:19:42.684Z,82.40
2019-04-27T07:22:12.557Z,82.74
2019-04-27T07:24:42.506Z,82.92
2019-04-27T07:27:12.491Z,82.53
2019-04-27T07:29:44.577Z,82.19
2019-04-27T07:32:14.636Z,82.52
2019-04-27T07:34:46.725Z,82.71
2019-04-27T07:37:17.073Z,82.52
2019-04-27T07:39:47.028Z,82.17
2019-04-27T07:42:17.348Z,81.83
2019-04-27T07:44:52.062Z,81.92
2019-04-27T07:47:23.839Z,82.18
2019-04-27T07:49:53.801Z,82.21
2019-04-27T07:52:23.730Z,82.67
2019-04-27T07:54:53.875Z,83.08
2019-04-27T07:57:23.835Z,83.57
2019-04-27T07:59:53.697Z,83.94
2019-04-27T08:02:23.644Z,83.72
2019-04-27T08:04:54.017Z,84.05
2019-04-27T08:07:24.644Z,84.80
2019-04-27T08:09:54.556Z,85.20
2019-04-27T08:12:24.655Z,85.47
2019-04-27T08:14:54.622Z,85.55
2019-04-27T08:17:24.800Z,85.10
2019-04-27T08:19:54.754Z,85.18
2019-04-27T08:22:24.630Z,85.64
2019-04-27T08:24:54.420Z,85.60
2019-04-27T08:27:29.938Z,85.67
2019-04-27T08:30:13.343Z,85.92
2019-04-27T08:32:45.538Z,85.50
2019-04-27T08:35:15.606Z,85.91
2019-04-27T08:37:45.507Z,86.14
2019-04-27T08:40:15.777Z,85.88
2019-04-27T08:42:45.654Z,86.03
2019-04-27T08:45:15.868Z,86.28
2019-04-27T08:47:45.847Z,85.75
2019-04-27T08:50:16.774Z,86.21
2019-04-27T08:52:46.589Z,86.36
2019-04-27T08:55:16.567Z,87.45
2019-04-27T08:57:46.514Z,87.11
2019-04-27T09:00:19.177Z,86.96
2019-04-27T09:02:50.283Z,86.75
2019-04-27T09:05:28.682Z,86.71
2019-04-27T09:08:23.746Z,86.76
2019-04-27T09:11:25.353Z,86.64
2019-04-27T09:14:14.145Z,87.02
2019-04-27T09:17:02.283Z,87.32
2019-04-27T09:19:54.554Z,87.65
2019-04-27T09:22:24.540Z,87.69
2019-04-27T09:24:54.454Z,87.74
2019-04-27T09:27:24.458Z,87.56
2019-04-27T09:29:54.464Z,87.93
2019-04-27T09:32:24.736Z,87.82
2019-04-27T09:34:56.950Z,87.74
2019-04-27T09:37:27.461Z,87.67
2019-04-27T09:39:57.415Z,87.40
2019-04-27T09:42:27.409Z,87.48
2019-04-27T09:44:57.634Z,87.81
2019-04-27T09:47:27.529Z,85.25
2019-04-27T09:49:57.802Z,79.42
2019-04-27T09:52:28.660Z,83.85
2019-04-27T09:54:58.760Z,84.66
2019-04-27T09:57:28.714Z,85.44
2019-04-27T09:59:59.285Z,84.48
2019-04-27T10:02:29.536Z,85.61
2019-04-27T10:04:59.465Z,86.80
2019-04-27T10:07:29.604Z,87.30
2019-04-27T10:09:59.878Z,88.51
2019-04-27T10:12:29.989Z,88.27
2019-04-27T10:15:01.054Z,88.18
2019-04-27T10:17:32.398Z,87.10
2019-04-27T10:20:03.147Z,88.41
2019-04-27T10:22:41.263Z,88.63
2019-04-27T10:25:07.059Z,89.16
2019-04-27T10:27:37.058Z,89.24
2019-04-27T10:30:08.880Z,88.69
2019-04-27T10:32:38.986Z,87.74
2019-04-27T10:35:08.956Z,86.78
2019-04-27T10:37:38.983Z,86.62
2019-04-27T10:40:09.000Z,87.50
2019-04-27T10:42:39.583Z,85.72
2019-04-27T10:45:11.323Z,83.41
2019-04-27T10:47:41.373Z,83.40
2019-04-27T10:50:11.406Z,83.17
2019-04-27T10:52:52.791Z,83.26
2019-04-27T10:55:13.465Z,79.34
2019-04-27T10:57:43.838Z,77.33
2019-04-27T11:00:16.681Z,76.16
2019-04-27T11:02:46.834Z,75.90
2019-04-27T11:05:35.924Z,76.18
2019-04-27T11:08:06.611Z,78.44
2019-04-27T11:10:36.823Z,77.55
2019-04-27T11:13:06.860Z,74.74
2019-04-27T11:15:37.142Z,73.76
2019-04-27T11:18:07.474Z,74.14
2019-04-27T11:20:37.462Z,74.46
2019-04-27T11:23:12.305Z,73.76
2019-04-27T11:25:40.855Z,72.90
2019-04-27T11:28:10.853Z,73.81
2019-04-27T11:30:40.824Z,75.02
2019-04-27T11:33:10.813Z,76.00
2019-04-27T11:35:47.253Z,77.18
2019-04-27T11:38:17.286Z,77.20
2019-04-27T11:40:48.677Z,78.17
2019-04-27T11:43:18.641Z,78.99
2019-04-27T11:45:48.871Z,79.89
2019-04-27T11:48:20.404Z,79.89
2019-04-27T11:50:50.438Z,79.48
2019-04-27T11:53:23.109Z,79.82
2019-04-27T11:55:52.362Z,79.16
2019-04-27T11:58:22.330Z,79.49
2019-04-27T12:00:52.351Z,80.17
2019-04-27T12:03:22.362Z,81.08
2019-04-27T12:05:52.661Z,80.88
2019-04-27T12:08:22.576Z,81.30
2019-04-27T12:10:52.495Z,80.70
2019-04-27T12:13:22.617Z,79.00
2019-04-27T12:15:53.120Z,79.59
2019-04-27T12:18:23.107Z,80.04
2019-04-27T12:20:53.491Z,80.26
2019-04-27T12:23:33.696Z,80.84
2019-04-27T12:25:56.345Z,81.62
2019-04-27T12:28:37.682Z,82.61
2019-04-27T12:31:30.396Z,82.97
2019-04-27T12:34:01.046Z,82.52
2019-04-27T12:36:31.250Z,82.24
2019-04-27T12:39:01.129Z,81.84
2019-04-27T12:41:32.732Z,82.69
2019-04-27T12:44:02.690Z,81.00
2019-04-27T12:46:32.759Z,75.56
2019-04-27T12:49:02.778Z,78.08
2019-04-27T12:51:37.301Z,76.16
2019-04-27T12:54:28.307Z,77.32
2019-04-27T12:57:36.416Z,77.28
2019-04-27T13:00:16.893Z,79.53
2019-04-27T13:02:46.949Z,77.13
2019-04-27T13:05:17.965Z,78.14
2019-04-27T13:07:48.307Z,69.69
2019-04-27T13:10:18.593Z,61.95
2019-04-27T13:12:49.094Z,60.49
2019-04-27T13:15:19.257Z,66.01
2019-04-27T13:17:49.183Z,66.67
2019-04-27T13:20:19.866Z,58.91
2019-04-27T13:22:49.804Z,62.43
2019-04-27T13:25:19.869Z,57.77
2019-04-27T13:27:51.216Z,60.75
2019-04-27T13:30:21.361Z,55.42
2019-04-27T13:32:51.444Z,53.33
2019-04-27T13:35:21.369Z,54.51
2019-04-27T13:37:52.892Z,55.42
2019-04-27T13:40:23.193Z,54.14
2019-04-27T13:43:07.874Z,53.00
2019-04-27T13:45:49.390Z,52.44
2019-04-27T13:48:41.209Z,50.41
2019-04-27T13:51:16.666Z,53.49
2019-04-27T13:53:46.509Z,50.77
2019-04-27T13:56:17.504Z,53.57
2019-04-27T13:58:47.636Z,51.75
2019-04-27T14:01:17.615Z,53.25
2019-04-27T14:03:47.588Z,53.98
2019-04-27T14:06:17.534Z,56.41
2019-04-27T14:08:47.507Z,56.02
2019-04-27T14:11:18.353Z,57.00
2019-04-27T14:13:49.661Z,58.29
2019-04-27T14:16:19.573Z,60.49
2019-04-27T14:18:49.862Z,60.49
2019-04-27T14:21:21.193Z,59.83
2019-04-27T14:23:51.587Z,60.63
2019-04-27T14:26:21.837Z,61.23
2019-04-27T14:28:52.048Z,60.12
2019-04-27T14:31:22.357Z,58.05
2019-04-27T14:33:52.925Z,55.58
2019-04-27T14:36:22.971Z,54.55
2019-04-27T14:38:52.960Z,54.43
2019-04-27T14:41:23.004Z,54.22
2019-04-27T14:44:05.217Z,55.08
2019-04-27T14:46:24.992Z,54.90
2019-04-27T14:48:55.068Z,54.48
2019-04-27T14:51:26.832Z,55.68
2019-04-27T14:53:58.813Z,54.92
2019-04-27T14:56:28.875Z,55.50
2019-04-27T14:58:58.850Z,55.60
2019-04-27T15:01:29.079Z,55.52
2019-04-27T15:03:58.968Z,54.62
2019-04-27T15:06:30.218Z,55.73
2019-04-27T15:09:00.454Z,57.04
2019-04-27T15:11:32.109Z,55.06
2019-04-27T15:14:04.289Z,56.39
2019-04-27T15:16:37.829Z,56.57
2019-04-27T15:19:13.296Z,57.99
2019-04-27T15:21:55.779Z,58.74
2019-04-27T15:24:13.863Z,58.15
2019-04-27T15:26:46.905Z,56.01
2019-04-27T15:29:20.609Z,57.02
2019-04-27T15:32:01.313Z,54.28
2019-04-27T15:34:45.524Z,55.07
2019-04-27T15:37:39.235Z,54.68
2019-04-27T15:40:34.510Z,54.22
2019-04-27T15:43:12.160Z,54.61
2019-04-27T15:45:42.003Z,55.04
2019-04-27T15:48:11.893Z,56.38
2019-04-27T15:50:41.862Z,55.17
2019-04-27T15:53:12.633Z,54.34
2019-04-27T15:55:42.773Z,51.77
2019-04-27T15:58:13.030Z,52.96
2019-04-27T16:00:42.993Z,52.75
2019-04-27T16:03:12.949Z,51.15
2019-04-27T16:05:42.971Z,51.17
2019-04-27T16:08:15.670Z,51.34
2019-04-27T16:10:45.287Z,51.90
2019-04-27T16:13:15.414Z,51.88
2019-04-27T16:15:48.172Z,52.02
2019-04-27T16:18:18.635Z,52.91
2019-04-27T16:20:50.168Z,53.61
2019-04-27T16:23:20.059Z,55.18
2019-04-27T16:25:51.507Z,57.87
2019-04-27T16:28:21.461Z,58.23
2019-04-27T16:30:53.854Z,57.67
2019-04-27T16:33:24.459Z,58.34
2019-04-27T16:36:00.282Z,59.20
2019-04-27T16:38:34.874Z,58.67
2019-04-27T16:41:04.897Z,59.26
2019-04-27T16:43:34.685Z,59.34
2019-04-27T16:46:05.624Z,59.70
2019-04-27T16:48:36.366Z,58.73
2019-04-27T16:51:06.642Z,59.84
2019-04-27T16:53:39.803Z,61.25
2019-04-27T16:56:15.163Z,60.68
2019-04-27T16:58:41.551Z,61.75
2019-04-27T17:01:20.324Z,62.21
2019-04-27T17:03:50.254Z,63.56
2019-04-27T17:06:21.370Z,62.23
2019-04-27T17:08:51.582Z,62.06
2019-04-27T17:11:21.671Z,63.26
2019-04-27T17:14:01.708Z,61.03
2019-04-27T17:17:11.911Z,61.75
2019-04-27T17:19:53.514Z,59.17
2019-04-27T17:22:23.370Z,59.03
2019-04-27T17:24:53.559Z,58.12
2019-04-27T17:27:32.244Z,57.82
2019-04-27T17:30:02.132Z,59.14
2019-04-27T17:32:45.606Z,59.81
2019-04-27T17:35:15.758Z,58.46
2019-04-27T17:37:45.716Z,58.58
2019-04-27T17:40:15.977Z,58.28
2019-04-27T17:42:45.941Z,58.02
2019-04-27T17:45:15.872Z,59.04
2019-04-27T17:47:45.818Z,59.47
2019-04-27T17:50:18.456Z,60.03
2019-04-27T17:52:54.338Z,59.62
2019-04-27T17:55:24.072Z,60.13
2019-04-27T17:57:50.785Z,60.47
2019-04-27T18:00:20.934Z,60.88
2019-04-27T18:02:50.928Z,61.37
2019-04-27T18:05:20.857Z,61.23
2019-04-27T18:07:50.830Z,60.54
2019-04-27T18:10:24.138Z,60.60
2019-04-27T18:12:52.689Z,60.69
2019-04-27T18:15:22.625Z,60.55
2019-04-27T18:17:54.498Z,61.41
2019-04-27T18:20:25.641Z,60.19
2019-04-27T18:23:08.913Z,58.18
2019-04-27T18:25:44.572Z,60.11
2019-04-27T18:28:19.004Z,60.48
2019-04-27T18:31:03.080Z,59.88
2019-04-27T18:33:37.291Z,60.38
2019-04-27T18:36:07.279Z,61.53
2019-04-27T18:38:37.298Z,60.74
2019-04-27T18:41:11.738Z,61.42
2019-04-27T18:43:46.401Z,62.29
2019-04-27T18:46:14.919Z,62.47
2019-04-27T18:49:05.290Z,62.54
2019-04-27T18:51:48.352Z,63.16
2019-04-27T18:54:18.526Z,63.24
2019-04-27T18:57:01.463Z,63.80
2019-04-27T18:59:19.904Z,64.02
2019-04-27T19:01:49.882Z,63.58
2019-04-27T19:04:19.704Z,63.26
2019-04-27T19:06:49.563Z,63.23
2019-04-27T19:09:19.709Z,62.89
2019-04-27T19:11:56.255Z,63.01
2019-04-27T19:14:21.439Z,63.37
2019-04-27T19:16:51.749Z,64.24
2019-04-27T19:19:23.190Z,64.60
2019-04-27T19:21:53.353Z,64.10
2019-04-27T19:24:23.303Z,64.90
2019-04-27T19:27:18.580Z,65.58
2019-04-27T19:29:51.738Z,65.82
2019-04-27T19:32:22.163Z,65.60
2019-04-27T19:34:52.112Z,66.12
2019-04-27T19:37:22.120Z,65.96
2019-04-27T19:39:52.419Z,65.14
2019-04-27T19:42:22.804Z,64.58
2019-04-27T19:44:52.972Z,63.82
2019-04-27T19:47:22.831Z,63.78
2019-04-27T19:49:52.806Z,64.46
2019-04-27T19:52:22.897Z,64.17
2019-04-27T19:54:52.850Z,63.99
2019-04-27T19:57:31.865Z,64.01
2019-04-27T19:59:58.849Z,64.23
2019-04-27T20:02:28.894Z,64.29
2019-04-27T20:05:03.316Z,64.18
2019-04-27T20:07:35.143Z,64.81
2019-04-27T20:10:08.745Z,65.21
2019-04-27T20:12:41.122Z,64.68
2019-04-27T20:15:11.385Z,64.28
2019-04-27T20:17:41.717Z,64.75
2019-04-27T20:20:11.802Z,64.81
2019-04-27T20:22:41.746Z,63.53
2019-04-27T20:25:11.735Z,63.12
2019-04-27T20:27:46.867Z,62.86
2019-04-27T20:30:14.054Z,63.85
2019-04-27T20:32:44.413Z,62.83
2019-04-27T20:35:14.364Z,62.81
2019-04-27T20:37:44.330Z,62.98
2019-04-27T20:40:14.449Z,62.29
2019-04-27T20:42:44.437Z,62.42
2019-04-27T20:45:14.572Z,62.41
2019-04-27T20:47:44.506Z,62.86
2019-04-27T20:50:14.535Z,62.80
2019-04-27T20:52:56.001Z,63.16
2019-04-27T20:55:25.932Z,62.85
2019-04-27T20:58:01.757Z,62.48
2019-04-27T21:00:27.800Z,63.47
2019-04-27T21:03:08.509Z,63.63
2019-04-27T21:05:56.029Z,63.81
2019-04-27T21:08:26.074Z,63.83
2019-04-27T21:10:56.327Z,64.64
2019-04-27T21:13:26.268Z,64.43
2019-04-27T21:15:56.544Z,64.49
2019-04-27T21:18:26.476Z,64.87
2019-04-27T21:20:56.358Z,64.75
2019-04-27T21:23:26.451Z,64.59
2019-04-27T21:25:56.338Z,64.39
2019-04-27T21:28:27.378Z,64.78
2019-04-27T21:30:57.364Z,65.09
2019-04-27T21:33:27.229Z,64.73
2019-04-27T21:35:57.258Z,64.99
2019-04-27T21:38:27.219Z,64.65
2019-04-27T21:40:57.102Z,65.13
2019-04-27T21:43:27.071Z,64.55
2019-04-27T21:45:57.017Z,64.25
2019-04-27T21:48:26.914Z,64.62
2019-04-27T21:50:56.799Z,64.46
2019-04-27T21:53:58.104Z,64.73
2019-04-27T21:56:28.097Z,65.01
2019-04-27T21:58:58.837Z,64.85
2019-04-27T22:01:31.851Z,64.83
2019-04-27T22:04:04.105Z,64.66
2019-04-27T22:06:34.117Z,64.60
2019-04-27T22:09:08.267Z,64.61
2019-04-27T22:11:40.883Z,64.63
2019-04-27T22:14:11.671Z,63.91
2019-04-27T22:16:42.043Z,64.41
2019-04-27T22:19:12.163Z,64.24
2019-04-27T22:21:43.268Z,64.46
2019-04-27T22:24:24.443Z,64.01
2019-04-27T22:26:55.082Z,63.30
2019-04-27T22:29:25.051Z,63.49
2019-04-27T22:31:55.069Z,63.62
2019-04-27T22:34:25.077Z,62.76
2019-04-27T22:36:55.015Z,63.48
2019-04-27T22:39:31.001Z,62.89
2019-04-27T22:42:18.646Z,63.07
2019-04-27T22:44:55.460Z,63.36
2019-04-27T22:47:25.758Z,63.26
2019-04-27T22:49:55.988Z,63.49
2019-04-27T22:52:26.277Z,63.12
2019-04-27T22:54:56.388Z,62.59
2019-04-27T22:57:39.085Z,62.62
2019-04-27T23:00:27.884Z,62.95
2019-04-27T23:03:00.828Z,62.96
2019-04-27T23:05:32.086Z,62.60
2019-04-27T23:08:02.090Z,62.85
2019-04-27T23:10:32.557Z,63.15
2019-04-27T23:13:02.818Z,63.60
2019-04-27T23:15:38.905Z,63.38
2019-04-27T23:18:08.953Z,63.49
2019-04-27T23:20:40.774Z,62.39
2019-04-27T23:23:11.476Z,61.78
2019-04-27T23:25:42.741Z,60.79
2019-04-27T23:28:12.815Z,61.80
2019-04-27T23:31:17.221Z,62.41
2019-04-27T23:33:48.629Z,63.16
2019-04-27T23:36:19.092Z,63.57
2019-04-27T23:38:50.870Z,62.66
2019-04-27T23:41:20.894Z,62.60
2019-04-27T23:43:50.897Z,62.70
2019-04-27T23:46:21.482Z,63.23
2019-04-27T23:48:53.911Z,63.46
2019-04-27T23:51:42.976Z,63.20
2019-04-27T23:54:12.954Z,63.56
2019-04-27T23:56:42.988Z,61.87
2019-04-27T23:59:24.228Z,62.70
